sensor_id;sensor_type;location;lat;lon;timestamp;P1;durP1;ratioP1;P2;durP2;ratioP2
13487;SDS011;6816;48.506;9.050;2023-03-23T00:01:50;3.47;;;2.00;;
13487;SDS011;6816;48.506;9.050;2023-03-23T00:04:51;4.67;;;2.23;;
13487;SDS011;6816;48.506;9.050;2023-03-23T00:07:53;2.63;;;1.97;;
13487;SDS011;6816;48.506;9.050;2023-03-23T00:10:55;2.73;;;1.83;;
13487;SDS011;6816;48.506;9.050;2023-03-23T00:13:57;2.73;;;1.87;;
13487;SDS011;6816;48.506;9.050;2023-03-23T00:17:00;2.90;;;2.17;;
13487;SDS011;6816;48.506;9.050;2023-03-23T00:20:02;2.17;;;1.60;;
13487;SDS011;6816;48.506;9.050;2023-03-23T00:23:05;2.93;;;2.00;;
13487;SDS011;6816;48.506;9.050;2023-03-23T00:26:07;4.67;;;2.47;;
13487;SDS011;6816;48.506;9.050;2023-03-23T00:29:16;4.27;;;2.07;;
13487;SDS011;6816;48.506;9.050;2023-03-23T00:32:22;6.17;;;2.13;;
13487;SDS011;6816;48.506;9.050;2023-03-23T00:35:28;3.60;;;2.40;;
13487;SDS011;6816;48.506;9.050;2023-03-23T00:38:30;4.23;;;2.30;;
13487;SDS011;6816;48.506;9.050;2023-03-23T00:41:31;3.67;;;2.50;;
13487;SDS011;6816;48.506;9.050;2023-03-23T00:44:33;3.80;;;2.20;;
13487;SDS011;6816;48.506;9.050;2023-03-23T00:47:35;2.90;;;2.20;;
13487;SDS011;6816;48.506;9.050;2023-03-23T00:50:36;3.70;;;1.87;;
13487;SDS011;6816;48.506;9.050;2023-03-23T00:53:37;2.77;;;1.90;;
13487;SDS011;6816;48.506;9.050;2023-03-23T00:56:39;3.90;;;2.13;;
13487;SDS011;6816;48.506;9.050;2023-03-23T00:59:40;4.57;;;2.30;;
13487;SDS011;6816;48.506;9.050;2023-03-23T01:02:40;3.27;;;2.13;;
13487;SDS011;6816;48.506;9.050;2023-03-23T01:05:44;4.33;;;2.30;;
13487;SDS011;6816;48.506;9.050;2023-03-23T01:08:46;2.60;;;2.00;;
13487;SDS011;6816;48.506;9.050;2023-03-23T01:11:49;2.97;;;2.30;;
13487;SDS011;6816;48.506;9.050;2023-03-23T01:14:51;2.60;;;1.80;;
13487;SDS011;6816;48.506;9.050;2023-03-23T01:17:51;4.40;;;2.77;;
13487;SDS011;6816;48.506;9.050;2023-03-23T01:20:52;3.73;;;2.13;;
13487;SDS011;6816;48.506;9.050;2023-03-23T01:23:53;3.63;;;1.87;;
13487;SDS011;6816;48.506;9.050;2023-03-23T01:26:53;3.53;;;2.00;;
13487;SDS011;6816;48.506;9.050;2023-03-23T01:29:54;3.03;;;2.00;;
13487;SDS011;6816;48.506;9.050;2023-03-23T01:32:55;3.50;;;2.13;;
13487;SDS011;6816;48.506;9.050;2023-03-23T01:35:56;3.13;;;2.03;;
13487;SDS011;6816;48.506;9.050;2023-03-23T01:39:01;3.57;;;2.30;;
13487;SDS011;6816;48.506;9.050;2023-03-23T01:42:04;2.20;;;1.67;;
13487;SDS011;6816;48.506;9.050;2023-03-23T01:48:32;3.83;;;2.00;;
13487;SDS011;6816;48.506;9.050;2023-03-23T01:51:36;3.10;;;2.13;;
13487;SDS011;6816;48.506;9.050;2023-03-23T01:54:41;2.77;;;2.03;;
13487;SDS011;6816;48.506;9.050;2023-03-23T01:57:44;2.47;;;1.83;;
13487;SDS011;6816;48.506;9.050;2023-03-23T02:00:45;3.97;;;1.90;;
13487;SDS011;6816;48.506;9.050;2023-03-23T02:03:47;2.47;;;1.83;;
13487;SDS011;6816;48.506;9.050;2023-03-23T02:06:48;3.07;;;2.03;;
13487;SDS011;6816;48.506;9.050;2023-03-23T02:09:50;3.80;;;1.67;;
13487;SDS011;6816;48.506;9.050;2023-03-23T02:12:52;2.20;;;1.67;;
13487;SDS011;6816;48.506;9.050;2023-03-23T02:19:30;2.87;;;1.80;;
13487;SDS011;6816;48.506;9.050;2023-03-23T02:23:05;2.57;;;1.83;;
13487;SDS011;6816;48.506;9.050;2023-03-23T02:33:09;2.80;;;1.70;;
13487;SDS011;6816;48.506;9.050;2023-03-23T02:36:16;2.13;;;1.80;;
13487;SDS011;6816;48.506;9.050;2023-03-23T02:39:21;3.17;;;2.00;;
13487;SDS011;6816;48.506;9.050;2023-03-23T02:42:26;2.70;;;1.93;;
13487;SDS011;6816;48.506;9.050;2023-03-23T02:45:31;2.03;;;1.80;;
13487;SDS011;6816;48.506;9.050;2023-03-23T02:48:34;3.17;;;1.87;;
13487;SDS011;6816;48.506;9.050;2023-03-23T02:51:36;3.27;;;1.80;;
13487;SDS011;6816;48.506;9.050;2023-03-23T02:54:38;4.47;;;1.93;;
13487;SDS011;6816;48.506;9.050;2023-03-23T02:57:42;2.63;;;1.93;;
13487;SDS011;6816;48.506;9.050;2023-03-23T03:00:45;2.57;;;1.83;;
13487;SDS011;6816;48.506;9.050;2023-03-23T03:03:49;2.87;;;1.70;;
13487;SDS011;6816;48.506;9.050;2023-03-23T03:13:11;3.27;;;1.93;;
13487;SDS011;6816;48.506;9.050;2023-03-23T03:19:53;4.33;;;1.80;;
13487;SDS011;6816;48.506;9.050;2023-03-23T03:23:04;1.90;;;1.50;;
13487;SDS011;6816;48.506;9.050;2023-03-23T03:26:07;4.87;;;1.70;;
13487;SDS011;6816;48.506;9.050;2023-03-23T03:29:18;3.33;;;1.97;;
13487;SDS011;6816;48.506;9.050;2023-03-23T03:32:23;1.80;;;1.60;;
13487;SDS011;6816;48.506;9.050;2023-03-23T03:35:31;1.83;;;1.50;;
13487;SDS011;6816;48.506;9.050;2023-03-23T03:38:46;1.63;;;1.37;;
13487;SDS011;6816;48.506;9.050;2023-03-23T03:41:48;2.00;;;1.33;;
13487;SDS011;6816;48.506;9.050;2023-03-23T03:44:49;2.20;;;1.60;;
13487;SDS011;6816;48.506;9.050;2023-03-23T03:47:50;1.50;;;1.30;;
13487;SDS011;6816;48.506;9.050;2023-03-23T03:50:50;3.50;;;1.50;;
13487;SDS011;6816;48.506;9.050;2023-03-23T03:53:52;1.33;;;1.23;;
13487;SDS011;6816;48.506;9.050;2023-03-23T03:56:52;1.97;;;1.00;;
13487;SDS011;6816;48.506;9.050;2023-03-23T03:59:57;2.27;;;1.70;;
13487;SDS011;6816;48.506;9.050;2023-03-23T04:02:58;1.50;;;1.30;;
13487;SDS011;6816;48.506;9.050;2023-03-23T04:05:59;1.90;;;1.30;;
13487;SDS011;6816;48.506;9.050;2023-03-23T04:09:00;2.33;;;1.30;;
13487;SDS011;6816;48.506;9.050;2023-03-23T04:12:06;1.63;;;1.20;;
13487;SDS011;6816;48.506;9.050;2023-03-23T04:15:07;2.30;;;1.57;;
13487;SDS011;6816;48.506;9.050;2023-03-23T04:18:08;1.33;;;1.23;;
13487;SDS011;6816;48.506;9.050;2023-03-23T04:21:09;1.40;;;1.30;;
13487;SDS011;6816;48.506;9.050;2023-03-23T04:24:10;1.40;;;1.30;;
13487;SDS011;6816;48.506;9.050;2023-03-23T04:27:10;1.63;;;1.23;;
13487;SDS011;6816;48.506;9.050;2023-03-23T04:30:13;1.70;;;1.40;;
13487;SDS011;6816;48.506;9.050;2023-03-23T04:33:14;2.43;;;1.10;;
13487;SDS011;6816;48.506;9.050;2023-03-23T04:36:15;2.80;;;1.50;;
13487;SDS011;6816;48.506;9.050;2023-03-23T04:39:16;1.90;;;1.20;;
13487;SDS011;6816;48.506;9.050;2023-03-23T04:42:17;1.47;;;1.30;;
13487;SDS011;6816;48.506;9.050;2023-03-23T04:45:19;2.30;;;1.40;;
13487;SDS011;6816;48.506;9.050;2023-03-23T04:48:23;1.43;;;1.27;;
13487;SDS011;6816;48.506;9.050;2023-03-23T04:51:27;3.07;;;1.60;;
13487;SDS011;6816;48.506;9.050;2023-03-23T04:54:29;2.17;;;1.27;;
13487;SDS011;6816;48.506;9.050;2023-03-23T04:57:29;2.63;;;1.60;;
13487;SDS011;6816;48.506;9.050;2023-03-23T05:00:34;2.30;;;1.37;;
13487;SDS011;6816;48.506;9.050;2023-03-23T05:03:36;2.57;;;1.53;;
13487;SDS011;6816;48.506;9.050;2023-03-23T05:06:36;2.10;;;1.40;;
13487;SDS011;6816;48.506;9.050;2023-03-23T05:09:37;1.50;;;1.37;;
13487;SDS011;6816;48.506;9.050;2023-03-23T05:12:37;2.33;;;1.60;;
13487;SDS011;6816;48.506;9.050;2023-03-23T05:15:39;1.30;;;1.20;;
13487;SDS011;6816;48.506;9.050;2023-03-23T05:18:39;1.87;;;1.40;;
13487;SDS011;6816;48.506;9.050;2023-03-23T05:21:40;1.60;;;1.20;;
13487;SDS011;6816;48.506;9.050;2023-03-23T05:24:42;1.77;;;1.40;;
13487;SDS011;6816;48.506;9.050;2023-03-23T05:27:42;2.60;;;1.40;;
13487;SDS011;6816;48.506;9.050;2023-03-23T05:30:48;2.57;;;1.53;;
13487;SDS011;6816;48.506;9.050;2023-03-23T05:33:49;2.27;;;1.40;;
13487;SDS011;6816;48.506;9.050;2023-03-23T05:36:49;1.67;;;1.37;;
13487;SDS011;6816;48.506;9.050;2023-03-23T05:39:53;3.03;;;1.70;;
13487;SDS011;6816;48.506;9.050;2023-03-23T05:42:55;2.80;;;1.40;;
13487;SDS011;6816;48.506;9.050;2023-03-23T05:45:58;2.27;;;1.50;;
13487;SDS011;6816;48.506;9.050;2023-03-23T05:49:00;2.77;;;1.73;;
13487;SDS011;6816;48.506;9.050;2023-03-23T05:52:00;2.57;;;1.33;;
13487;SDS011;6816;48.506;9.050;2023-03-23T05:55:01;3.60;;;1.70;;
13487;SDS011;6816;48.506;9.050;2023-03-23T05:58:03;2.03;;;1.37;;
13487;SDS011;6816;48.506;9.050;2023-03-23T06:01:07;1.90;;;1.20;;
13487;SDS011;6816;48.506;9.050;2023-03-23T06:04:08;1.77;;;1.47;;
13487;SDS011;6816;48.506;9.050;2023-03-23T06:07:09;2.90;;;1.70;;
13487;SDS011;6816;48.506;9.050;2023-03-23T06:10:13;3.30;;;1.40;;
13487;SDS011;6816;48.506;9.050;2023-03-23T06:13:14;1.87;;;1.30;;
13487;SDS011;6816;48.506;9.050;2023-03-23T06:16:15;1.63;;;1.43;;
13487;SDS011;6816;48.506;9.050;2023-03-23T06:19:16;2.53;;;1.50;;
13487;SDS011;6816;48.506;9.050;2023-03-23T06:22:16;1.70;;;1.50;;
13487;SDS011;6816;48.506;9.050;2023-03-23T06:25:17;1.60;;;1.30;;
13487;SDS011;6816;48.506;9.050;2023-03-23T06:28:18;1.77;;;1.17;;
13487;SDS011;6816;48.506;9.050;2023-03-23T06:31:19;1.87;;;1.20;;
13487;SDS011;6816;48.506;9.050;2023-03-23T06:34:20;1.80;;;1.27;;
13487;SDS011;6816;48.506;9.050;2023-03-23T06:37:21;2.37;;;1.37;;
13487;SDS011;6816;48.506;9.050;2023-03-23T06:40:23;2.47;;;1.60;;
13487;SDS011;6816;48.506;9.050;2023-03-23T06:43:24;2.93;;;1.50;;
13487;SDS011;6816;48.506;9.050;2023-03-23T06:46:24;2.43;;;1.30;;
13487;SDS011;6816;48.506;9.050;2023-03-23T06:49:25;2.30;;;1.30;;
13487;SDS011;6816;48.506;9.050;2023-03-23T06:52:26;2.20;;;1.30;;
13487;SDS011;6816;48.506;9.050;2023-03-23T06:55:27;1.70;;;1.17;;
13487;SDS011;6816;48.506;9.050;2023-03-23T06:58:27;2.00;;;1.20;;
13487;SDS011;6816;48.506;9.050;2023-03-23T07:01:28;1.90;;;1.37;;
13487;SDS011;6816;48.506;9.050;2023-03-23T07:04:29;1.37;;;1.27;;
13487;SDS011;6816;48.506;9.050;2023-03-23T07:07:30;1.97;;;1.30;;
13487;SDS011;6816;48.506;9.050;2023-03-23T07:10:31;1.33;;;1.10;;
13487;SDS011;6816;48.506;9.050;2023-03-23T07:13:32;1.93;;;1.50;;
13487;SDS011;6816;48.506;9.050;2023-03-23T07:16:32;2.93;;;1.87;;
13487;SDS011;6816;48.506;9.050;2023-03-23T07:19:33;1.80;;;1.40;;
13487;SDS011;6816;48.506;9.050;2023-03-23T07:22:34;3.50;;;1.80;;
13487;SDS011;6816;48.506;9.050;2023-03-23T07:25:35;4.60;;;2.07;;
13487;SDS011;6816;48.506;9.050;2023-03-23T07:28:36;2.97;;;1.73;;
13487;SDS011;6816;48.506;9.050;2023-03-23T07:31:36;3.80;;;1.50;;
13487;SDS011;6816;48.506;9.050;2023-03-23T07:34:37;2.20;;;1.60;;
13487;SDS011;6816;48.506;9.050;2023-03-23T07:37:38;3.13;;;1.83;;
13487;SDS011;6816;48.506;9.050;2023-03-23T07:40:39;1.97;;;1.40;;
13487;SDS011;6816;48.506;9.050;2023-03-23T07:43:40;2.57;;;1.43;;
13487;SDS011;6816;48.506;9.050;2023-03-23T07:46:41;1.50;;;1.23;;
13487;SDS011;6816;48.506;9.050;2023-03-23T07:49:43;2.13;;;1.57;;
13487;SDS011;6816;48.506;9.050;2023-03-23T07:52:43;2.30;;;1.50;;
13487;SDS011;6816;48.506;9.050;2023-03-23T07:55:44;1.23;;;1.03;;
13487;SDS011;6816;48.506;9.050;2023-03-23T07:58:45;2.00;;;1.30;;
13487;SDS011;6816;48.506;9.050;2023-03-23T08:01:46;2.37;;;1.47;;
13487;SDS011;6816;48.506;9.050;2023-03-23T08:04:47;2.63;;;1.37;;
13487;SDS011;6816;48.506;9.050;2023-03-23T08:07:48;1.73;;;1.50;;
13487;SDS011;6816;48.506;9.050;2023-03-23T08:10:49;2.33;;;1.50;;
13487;SDS011;6816;48.506;9.050;2023-03-23T08:13:50;1.63;;;1.17;;
13487;SDS011;6816;48.506;9.050;2023-03-23T08:16:51;2.50;;;1.35;;
13487;SDS011;6816;48.506;9.050;2023-03-23T08:19:51;4.28;;;1.40;;
13487;SDS011;6816;48.506;9.050;2023-03-23T08:22:53;3.45;;;1.75;;
13487;SDS011;6816;48.506;9.050;2023-03-23T08:25:55;2.25;;;1.17;;
13487;SDS011;6816;48.506;9.050;2023-03-23T08:28:56;3.03;;;1.65;;
13487;SDS011;6816;48.506;9.050;2023-03-23T08:31:57;1.83;;;1.52;;
13487;SDS011;6816;48.506;9.050;2023-03-23T08:34:58;1.83;;;1.48;;
13487;SDS011;6816;48.506;9.050;2023-03-23T08:37:59;1.30;;;1.20;;
13487;SDS011;6816;48.506;9.050;2023-03-23T08:41:00;4.75;;;1.30;;
13487;SDS011;6816;48.506;9.050;2023-03-23T08:44:03;1.35;;;1.25;;
13487;SDS011;6816;48.506;9.050;2023-03-23T08:47:05;2.83;;;1.60;;
13487;SDS011;6816;48.506;9.050;2023-03-23T08:50:07;1.38;;;1.27;;
13487;SDS011;6816;48.506;9.050;2023-03-23T08:53:10;1.35;;;1.20;;
13487;SDS011;6816;48.506;9.050;2023-03-23T08:56:11;2.05;;;1.35;;
13487;SDS011;6816;48.506;9.050;2023-03-23T08:59:13;2.22;;;1.38;;
13487;SDS011;6816;48.506;9.050;2023-03-23T09:02:13;1.83;;;1.08;;
13487;SDS011;6816;48.506;9.050;2023-03-23T09:05:20;1.27;;;1.17;;
13487;SDS011;6816;48.506;9.050;2023-03-23T09:08:22;1.90;;;1.30;;
13487;SDS011;6816;48.506;9.050;2023-03-23T09:11:22;1.27;;;1.17;;
13487;SDS011;6816;48.506;9.050;2023-03-23T09:14:23;4.03;;;1.27;;
13487;SDS011;6816;48.506;9.050;2023-03-23T09:17:24;1.20;;;1.10;;
13487;SDS011;6816;48.506;9.050;2023-03-23T09:20:26;1.80;;;1.05;;
13487;SDS011;6816;48.506;9.050;2023-03-23T09:23:27;3.85;;;1.15;;
13487;SDS011;6816;48.506;9.050;2023-03-23T09:26:28;1.20;;;1.10;;
13487;SDS011;6816;48.506;9.050;2023-03-23T09:29:29;1.58;;;1.23;;
13487;SDS011;6816;48.506;9.050;2023-03-23T09:32:30;1.77;;;1.08;;
13487;SDS011;6816;48.506;9.050;2023-03-23T09:35:32;1.70;;;1.13;;
13487;SDS011;6816;48.506;9.050;2023-03-23T09:38:34;1.90;;;1.40;;
13487;SDS011;6816;48.506;9.050;2023-03-23T09:51:51;1.23;;;1.02;;
13487;SDS011;6816;48.506;9.050;2023-03-23T09:55:14;0.85;;;0.85;;
13487;SDS011;6816;48.506;9.050;2023-03-23T10:01:49;1.55;;;1.10;;
13487;SDS011;6816;48.506;9.050;2023-03-23T10:04:52;1.08;;;0.90;;
13487;SDS011;6816;48.506;9.050;2023-03-23T10:07:56;1.42;;;1.10;;
13487;SDS011;6816;48.506;9.050;2023-03-23T10:11:01;1.25;;;0.93;;
13487;SDS011;6816;48.506;9.050;2023-03-23T10:17:22;2.15;;;1.17;;
13487;SDS011;6816;48.506;9.050;2023-03-23T10:20:53;1.05;;;0.95;;
13487;SDS011;6816;48.506;9.050;2023-03-23T10:24:00;3.70;;;1.08;;
13487;SDS011;6816;48.506;9.050;2023-03-23T10:30:54;1.33;;;1.13;;
13487;SDS011;6816;48.506;9.050;2023-03-23T10:33:58;0.98;;;0.93;;
13487;SDS011;6816;48.506;9.050;2023-03-23T10:37:18;1.50;;;0.90;;
13487;SDS011;6816;48.506;9.050;2023-03-23T10:40:25;1.48;;;1.10;;
13487;SDS011;6816;48.506;9.050;2023-03-23T10:43:29;2.20;;;1.00;;
13487;SDS011;6816;48.506;9.050;2023-03-23T10:46:36;1.40;;;1.30;;
13487;SDS011;6816;48.506;9.050;2023-03-23T10:49:58;1.75;;;1.10;;
13487;SDS011;6816;48.506;9.050;2023-03-23T10:53:02;0.93;;;0.88;;
13487;SDS011;6816;48.506;9.050;2023-03-23T10:56:43;1.50;;;0.98;;
13487;SDS011;6816;48.506;9.050;2023-03-23T10:59:45;1.23;;;1.10;;
13487;SDS011;6816;48.506;9.050;2023-03-23T11:02:46;2.42;;;1.20;;
13487;SDS011;6816;48.506;9.050;2023-03-23T11:05:59;1.13;;;1.00;;
13487;SDS011;6816;48.506;9.050;2023-03-23T11:09:09;1.48;;;1.20;;
13487;SDS011;6816;48.506;9.050;2023-03-23T11:12:16;1.30;;;1.13;;
13487;SDS011;6816;48.506;9.050;2023-03-23T11:15:23;1.17;;;1.00;;
13487;SDS011;6816;48.506;9.050;2023-03-23T11:18:35;1.20;;;1.00;;
13487;SDS011;6816;48.506;9.050;2023-03-23T11:21:39;1.25;;;0.90;;
13487;SDS011;6816;48.506;9.050;2023-03-23T11:24:42;1.23;;;1.13;;
13487;SDS011;6816;48.506;9.050;2023-03-23T11:27:46;0.90;;;0.90;;
13487;SDS011;6816;48.506;9.050;2023-03-23T11:30:47;2.25;;;1.10;;
13487;SDS011;6816;48.506;9.050;2023-03-23T11:33:52;2.92;;;1.20;;
13487;SDS011;6816;48.506;9.050;2023-03-23T11:37:12;1.00;;;1.00;;
13487;SDS011;6816;48.506;9.050;2023-03-23T11:40:29;1.20;;;1.10;;
13487;SDS011;6816;48.506;9.050;2023-03-23T11:43:38;1.30;;;1.20;;
13487;SDS011;6816;48.506;9.050;2023-03-23T11:49:55;1.20;;;1.10;;
13487;SDS011;6816;48.506;9.050;2023-03-23T11:56:46;2.28;;;1.00;;
13487;SDS011;6816;48.506;9.050;2023-03-23T11:59:42;1.55;;;1.08;;
13487;SDS011;6816;48.506;9.050;2023-03-23T12:06:09;1.20;;;1.10;;
13487;SDS011;6816;48.506;9.050;2023-03-23T12:09:16;1.38;;;1.10;;
13487;SDS011;6816;48.506;9.050;2023-03-23T12:16:00;1.23;;;1.17;;
13487;SDS011;6816;48.506;9.050;2023-03-23T12:19:21;1.60;;;1.20;;
13487;SDS011;6816;48.506;9.050;2023-03-23T12:35:53;1.38;;;1.10;;
13487;SDS011;6816;48.506;9.050;2023-03-23T12:39:29;1.27;;;1.17;;
13487;SDS011;6816;48.506;9.050;2023-03-23T12:52:26;1.33;;;1.23;;
13487;SDS011;6816;48.506;9.050;2023-03-23T12:55:39;1.42;;;1.00;;
13487;SDS011;6816;48.506;9.050;2023-03-23T12:58:45;1.33;;;1.05;;
13487;SDS011;6816;48.506;9.050;2023-03-23T13:01:52;1.42;;;0.93;;
13487;SDS011;6816;48.506;9.050;2023-03-23T13:05:26;1.42;;;1.15;;
13487;SDS011;6816;48.506;9.050;2023-03-23T13:08:37;1.27;;;1.17;;
13487;SDS011;6816;48.506;9.050;2023-03-23T13:11:42;0.90;;;0.90;;
13487;SDS011;6816;48.506;9.050;2023-03-23T13:24:27;1.23;;;1.13;;
13487;SDS011;6816;48.506;9.050;2023-03-23T13:27:31;1.30;;;1.00;;
13487;SDS011;6816;48.506;9.050;2023-03-23T13:30:32;1.42;;;1.33;;
13487;SDS011;6816;48.506;9.050;2023-03-23T13:33:34;2.35;;;1.40;;
13487;SDS011;6816;48.506;9.050;2023-03-23T13:36:39;1.50;;;1.40;;
13487;SDS011;6816;48.506;9.050;2023-03-23T13:39:55;0.90;;;0.90;;
13487;SDS011;6816;48.506;9.050;2023-03-23T13:42:59;3.22;;;1.15;;
13487;SDS011;6816;48.506;9.050;2023-03-23T13:46:08;1.42;;;1.33;;
13487;SDS011;6816;48.506;9.050;2023-03-23T13:49:31;1.58;;;1.25;;
13487;SDS011;6816;48.506;9.050;2023-03-23T13:52:46;1.75;;;1.20;;
13487;SDS011;6816;48.506;9.050;2023-03-23T13:59:27;1.35;;;1.25;;
13487;SDS011;6816;48.506;9.050;2023-03-23T14:02:40;1.25;;;1.15;;
13487;SDS011;6816;48.506;9.050;2023-03-23T14:05:43;1.77;;;1.40;;
13487;SDS011;6816;48.506;9.050;2023-03-23T14:08:49;4.32;;;2.42;;
13487;SDS011;6816;48.506;9.050;2023-03-23T14:11:57;1.73;;;1.40;;
13487;SDS011;6816;48.506;9.050;2023-03-23T14:15:11;1.65;;;1.55;;
13487;SDS011;6816;48.506;9.050;2023-03-23T14:18:15;2.05;;;1.40;;
13487;SDS011;6816;48.506;9.050;2023-03-23T14:21:17;2.13;;;1.55;;
13487;SDS011;6816;48.506;9.050;2023-03-23T14:24:23;1.30;;;1.20;;
13487;SDS011;6816;48.506;9.050;2023-03-23T14:27:26;1.20;;;1.10;;
13487;SDS011;6816;48.506;9.050;2023-03-23T14:30:27;1.92;;;1.40;;
13487;SDS011;6816;48.506;9.050;2023-03-23T14:33:37;2.05;;;1.35;;
13487;SDS011;6816;48.506;9.050;2023-03-23T14:36:40;1.83;;;1.50;;
13487;SDS011;6816;48.506;9.050;2023-03-23T14:39:47;1.30;;;1.20;;
13487;SDS011;6816;48.506;9.050;2023-03-23T14:42:50;2.38;;;1.55;;
13487;SDS011;6816;48.506;9.050;2023-03-23T14:45:54;1.65;;;1.35;;
13487;SDS011;6816;48.506;9.050;2023-03-23T14:49:04;1.92;;;1.48;;
13487;SDS011;6816;48.506;9.050;2023-03-23T14:52:10;1.48;;;1.30;;
13487;SDS011;6816;48.506;9.050;2023-03-23T14:55:22;1.42;;;1.30;;
13487;SDS011;6816;48.506;9.050;2023-03-23T14:58:23;1.67;;;1.40;;
13487;SDS011;6816;48.506;9.050;2023-03-23T15:01:26;2.80;;;1.48;;
13487;SDS011;6816;48.506;9.050;2023-03-23T15:04:30;2.22;;;1.20;;
13487;SDS011;6816;48.506;9.050;2023-03-23T15:07:35;1.92;;;1.60;;
13487;SDS011;6816;48.506;9.050;2023-03-23T15:10:36;1.58;;;1.48;;
13487;SDS011;6816;48.506;9.050;2023-03-23T15:13:42;1.42;;;1.27;;
13487;SDS011;6816;48.506;9.050;2023-03-23T15:16:47;1.70;;;1.30;;
13487;SDS011;6816;48.506;9.050;2023-03-23T15:19:52;1.40;;;1.30;;
13487;SDS011;6816;48.506;9.050;2023-03-23T15:22:54;3.30;;;1.63;;
13487;SDS011;6816;48.506;9.050;2023-03-23T15:25:56;1.45;;;1.33;;
13487;SDS011;6816;48.506;9.050;2023-03-23T15:29:19;1.40;;;1.30;;
13487;SDS011;6816;48.506;9.050;2023-03-23T15:32:24;2.63;;;1.90;;
13487;SDS011;6816;48.506;9.050;2023-03-23T15:35:32;1.25;;;1.15;;
13487;SDS011;6816;48.506;9.050;2023-03-23T15:38:35;1.38;;;1.17;;
13487;SDS011;6816;48.506;9.050;2023-03-23T15:41:44;1.80;;;1.40;;
13487;SDS011;6816;48.506;9.050;2023-03-23T15:44:54;1.50;;;1.40;;
13487;SDS011;6816;48.506;9.050;2023-03-23T15:48:12;1.52;;;1.42;;
13487;SDS011;6816;48.506;9.050;2023-03-23T15:51:13;1.65;;;1.30;;
13487;SDS011;6816;48.506;9.050;2023-03-23T15:54:15;1.83;;;1.23;;
13487;SDS011;6816;48.506;9.050;2023-03-23T15:57:16;1.98;;;1.40;;
13487;SDS011;6816;48.506;9.050;2023-03-23T16:00:17;1.55;;;1.25;;
13487;SDS011;6816;48.506;9.050;2023-03-23T16:03:22;1.48;;;1.38;;
13487;SDS011;6816;48.506;9.050;2023-03-23T16:06:26;1.58;;;1.40;;
13487;SDS011;6816;48.506;9.050;2023-03-23T16:09:29;1.55;;;1.40;;
13487;SDS011;6816;48.506;9.050;2023-03-23T16:12:30;1.70;;;1.40;;
13487;SDS011;6816;48.506;9.050;2023-03-23T16:15:31;1.92;;;1.40;;
13487;SDS011;6816;48.506;9.050;2023-03-23T16:18:31;1.30;;;1.20;;
13487;SDS011;6816;48.506;9.050;2023-03-23T16:21:32;1.73;;;1.63;;
13487;SDS011;6816;48.506;9.050;2023-03-23T16:24:33;1.30;;;1.20;;
13487;SDS011;6816;48.506;9.050;2023-03-23T16:27:33;2.97;;;1.38;;
13487;SDS011;6816;48.506;9.050;2023-03-23T16:30:35;1.30;;;1.20;;
13487;SDS011;6816;48.506;9.050;2023-03-23T16:33:35;1.67;;;1.30;;
13487;SDS011;6816;48.506;9.050;2023-03-23T16:36:36;1.60;;;1.50;;
13487;SDS011;6816;48.506;9.050;2023-03-23T16:39:38;4.00;;;1.23;;
13487;SDS011;6816;48.506;9.050;2023-03-23T16:42:38;3.10;;;1.52;;
13487;SDS011;6816;48.506;9.050;2023-03-23T16:45:40;1.52;;;1.42;;
13487;SDS011;6816;48.506;9.050;2023-03-23T16:48:42;1.70;;;1.60;;
13487;SDS011;6816;48.506;9.050;2023-03-23T16:51:42;1.50;;;1.40;;
13487;SDS011;6816;48.506;9.050;2023-03-23T16:54:43;2.05;;;1.50;;
13487;SDS011;6816;48.506;9.050;2023-03-23T16:57:44;2.03;;;1.55;;
13487;SDS011;6816;48.506;9.050;2023-03-23T17:00:46;2.63;;;1.55;;
13487;SDS011;6816;48.506;9.050;2023-03-23T17:03:48;1.50;;;1.40;;
13487;SDS011;6816;48.506;9.050;2023-03-23T17:06:48;1.80;;;1.38;;
13487;SDS011;6816;48.506;9.050;2023-03-23T17:09:50;1.88;;;1.42;;
13487;SDS011;6816;48.506;9.050;2023-03-23T17:12:51;2.30;;;1.77;;
13487;SDS011;6816;48.506;9.050;2023-03-23T17:15:53;2.17;;;1.60;;
13487;SDS011;6816;48.506;9.050;2023-03-23T17:18:56;3.28;;;1.85;;
13487;SDS011;6816;48.506;9.050;2023-03-23T17:21:56;2.40;;;2.00;;
13487;SDS011;6816;48.506;9.050;2023-03-23T17:24:57;1.92;;;1.73;;
13487;SDS011;6816;48.506;9.050;2023-03-23T17:27:57;2.70;;;1.55;;
13487;SDS011;6816;48.506;9.050;2023-03-23T17:30:58;4.80;;;1.67;;
13487;SDS011;6816;48.506;9.050;2023-03-23T17:33:59;3.85;;;1.85;;
13487;SDS011;6816;48.506;9.050;2023-03-23T17:36:59;2.40;;;1.60;;
13487;SDS011;6816;48.506;9.050;2023-03-23T17:40:00;2.05;;;1.85;;
13487;SDS011;6816;48.506;9.050;2023-03-23T17:43:02;1.90;;;1.60;;
13487;SDS011;6816;48.506;9.050;2023-03-23T17:46:03;2.13;;;1.60;;
13487;SDS011;6816;48.506;9.050;2023-03-23T17:49:04;2.50;;;2.00;;
13487;SDS011;6816;48.506;9.050;2023-03-23T17:52:05;2.20;;;1.90;;
13487;SDS011;6816;48.506;9.050;2023-03-23T17:55:06;3.70;;;2.00;;
13487;SDS011;6816;48.506;9.050;2023-03-23T17:58:08;2.20;;;1.90;;
13487;SDS011;6816;48.506;9.050;2023-03-23T18:01:08;2.63;;;1.73;;
13487;SDS011;6816;48.506;9.050;2023-03-23T18:04:09;3.37;;;2.00;;
13487;SDS011;6816;48.506;9.050;2023-03-23T18:07:10;2.97;;;1.70;;
13487;SDS011;6816;48.506;9.050;2023-03-23T18:10:10;2.80;;;1.80;;
13487;SDS011;6816;48.506;9.050;2023-03-23T18:13:11;2.70;;;1.93;;
13487;SDS011;6816;48.506;9.050;2023-03-23T18:16:12;5.23;;;2.23;;
13487;SDS011;6816;48.506;9.050;2023-03-23T18:19:12;2.67;;;1.73;;
13487;SDS011;6816;48.506;9.050;2023-03-23T18:22:13;1.90;;;1.67;;
13487;SDS011;6816;48.506;9.050;2023-03-23T18:25:14;2.00;;;1.63;;
13487;SDS011;6816;48.506;9.050;2023-03-23T18:28:15;2.37;;;1.77;;
13487;SDS011;6816;48.506;9.050;2023-03-23T18:31:16;1.83;;;1.63;;
13487;SDS011;6816;48.506;9.050;2023-03-23T18:34:18;2.90;;;1.50;;
13487;SDS011;6816;48.506;9.050;2023-03-23T18:37:18;1.73;;;1.57;;
13487;SDS011;6816;48.506;9.050;2023-03-23T18:40:19;2.90;;;1.60;;
13487;SDS011;6816;48.506;9.050;2023-03-23T18:43:20;1.85;;;1.60;;
13487;SDS011;6816;48.506;9.050;2023-03-23T18:46:22;2.07;;;1.80;;
13487;SDS011;6816;48.506;9.050;2023-03-23T18:49:23;1.43;;;1.33;;
13487;SDS011;6816;48.506;9.050;2023-03-23T18:52:24;1.70;;;1.60;;
13487;SDS011;6816;48.506;9.050;2023-03-23T18:55:25;1.73;;;1.60;;
13487;SDS011;6816;48.506;9.050;2023-03-23T18:58:26;1.53;;;1.30;;
13487;SDS011;6816;48.506;9.050;2023-03-23T19:01:26;1.57;;;1.47;;
13487;SDS011;6816;48.506;9.050;2023-03-23T19:04:27;2.40;;;1.53;;
13487;SDS011;6816;48.506;9.050;2023-03-23T19:07:30;2.00;;;1.60;;
13487;SDS011;6816;48.506;9.050;2023-03-23T19:10:31;3.47;;;1.80;;
13487;SDS011;6816;48.506;9.050;2023-03-23T19:13:36;2.10;;;1.40;;
13487;SDS011;6816;48.506;9.050;2023-03-23T19:16:36;3.53;;;1.83;;
13487;SDS011;6816;48.506;9.050;2023-03-23T19:19:37;2.20;;;1.77;;
13487;SDS011;6816;48.506;9.050;2023-03-23T19:22:40;3.83;;;1.70;;
13487;SDS011;6816;48.506;9.050;2023-03-23T19:25:41;2.10;;;1.70;;
13487;SDS011;6816;48.506;9.050;2023-03-23T19:28:41;1.87;;;1.50;;
13487;SDS011;6816;48.506;9.050;2023-03-23T19:31:42;1.77;;;1.67;;
13487;SDS011;6816;48.506;9.050;2023-03-23T19:34:43;2.37;;;1.67;;
13487;SDS011;6816;48.506;9.050;2023-03-23T19:37:44;2.67;;;1.63;;
13487;SDS011;6816;48.506;9.050;2023-03-23T19:40:52;2.20;;;1.90;;
13487;SDS011;6816;48.506;9.050;2023-03-23T19:43:56;2.77;;;1.80;;
13487;SDS011;6816;48.506;9.050;2023-03-23T19:46:57;2.10;;;1.70;;
13487;SDS011;6816;48.506;9.050;2023-03-23T19:49:58;1.77;;;1.60;;
13487;SDS011;6816;48.506;9.050;2023-03-23T19:52:59;3.50;;;1.87;;
13487;SDS011;6816;48.506;9.050;2023-03-23T19:56:00;3.27;;;2.13;;
13487;SDS011;6816;48.506;9.050;2023-03-23T19:59:02;2.30;;;1.97;;
13487;SDS011;6816;48.506;9.050;2023-03-23T20:02:03;1.77;;;1.63;;
13487;SDS011;6816;48.506;9.050;2023-03-23T20:05:03;3.03;;;2.20;;
13487;SDS011;6816;48.506;9.050;2023-03-23T20:08:04;2.60;;;1.90;;
13487;SDS011;6816;48.506;9.050;2023-03-23T20:11:06;2.90;;;1.60;;
13487;SDS011;6816;48.506;9.050;2023-03-23T20:14:09;2.10;;;1.90;;
13487;SDS011;6816;48.506;9.050;2023-03-23T20:17:10;2.77;;;1.93;;